sensor_id;sensor_type;location;lat;lon;timestamp;P1;durP1;ratioP1;P2;durP2;ratioP2
22298;SDS011;11317;51.072;17.036;2023-12-29T00:02:03;8.45;;;4.78;;
22298;SDS011;11317;51.072;17.036;2023-12-29T00:04:29;9.48;;;5.13;;
22298;SDS011;11317;51.072;17.036;2023-12-29T00:06:56;11.15;;;5.32;;
22298;SDS011;11317;51.072;17.036;2023-12-29T00:09:22;8.23;;;5.07;;
22298;SDS011;11317;51.072;17.036;2023-12-29T00:11:51;7.30;;;4.93;;
22298;SDS011;11317;51.072;17.036;2023-12-29T00:14:17;14.43;;;5.88;;
22298;SDS011;11317;51.072;17.036;2023-12-29T00:16:43;9.98;;;5.03;;
22298;SDS011;11317;51.072;17.036;2023-12-29T00:19:10;10.52;;;5.00;;
22298;SDS011;11317;51.072;17.036;2023-12-29T00:21:36;6.72;;;4.53;;
22298;SDS011;11317;51.072;17.036;2023-12-29T00:24:03;8.75;;;4.85;;
22298;SDS011;11317;51.072;17.036;2023-12-29T00:26:30;8.00;;;5.03;;
22298;SDS011;11317;51.072;17.036;2023-12-29T00:28:56;10.13;;;5.03;;
22298;SDS011;11317;51.072;17.036;2023-12-29T00:31:23;12.88;;;4.88;;
22298;SDS011;11317;51.072;17.036;2023-12-29T00:33:49;12.15;;;5.90;;
22298;SDS011;11317;51.072;17.036;2023-12-29T00:36:17;11.43;;;5.18;;
22298;SDS011;11317;51.072;17.036;2023-12-29T00:38:44;8.13;;;4.47;;
22298;SDS011;11317;51.072;17.036;2023-12-29T00:41:10;7.35;;;4.53;;
22298;SDS011;11317;51.072;17.036;2023-12-29T00:43:36;9.98;;;4.68;;
22298;SDS011;11317;51.072;17.036;2023-12-29T00:46:03;7.05;;;4.78;;
22298;SDS011;11317;51.072;17.036;2023-12-29T00:48:33;8.48;;;4.95;;
22298;SDS011;11317;51.072;17.036;2023-12-29T00:51:03;9.50;;;5.07;;
22298;SDS011;11317;51.072;17.036;2023-12-29T00:53:29;6.60;;;4.40;;
22298;SDS011;11317;51.072;17.036;2023-12-29T00:55:57;9.48;;;5.03;;
22298;SDS011;11317;51.072;17.036;2023-12-29T00:58:24;10.85;;;5.18;;
22298;SDS011;11317;51.072;17.036;2023-12-29T01:00:50;10.27;;;4.75;;
22298;SDS011;11317;51.072;17.036;2023-12-29T01:03:16;8.82;;;4.68;;
22298;SDS011;11317;51.072;17.036;2023-12-29T01:05:43;8.70;;;4.63;;
22298;SDS011;11317;51.072;17.036;2023-12-29T01:08:09;6.72;;;4.50;;
22298;SDS011;11317;51.072;17.036;2023-12-29T01:10:35;9.38;;;4.88;;
22298;SDS011;11317;51.072;17.036;2023-12-29T01:13:01;7.63;;;4.15;;
22298;SDS011;11317;51.072;17.036;2023-12-29T01:15:27;12.15;;;5.38;;
22298;SDS011;11317;51.072;17.036;2023-12-29T01:17:53;6.22;;;4.53;;
22298;SDS011;11317;51.072;17.036;2023-12-29T01:20:19;9.23;;;4.75;;
22298;SDS011;11317;51.072;17.036;2023-12-29T01:22:46;5.85;;;4.28;;
22298;SDS011;11317;51.072;17.036;2023-12-29T01:25:12;6.22;;;4.03;;
22298;SDS011;11317;51.072;17.036;2023-12-29T01:27:38;8.05;;;4.20;;
22298;SDS011;11317;51.072;17.036;2023-12-29T01:30:04;8.18;;;4.40;;
22298;SDS011;11317;51.072;17.036;2023-12-29T01:32:30;6.10;;;3.80;;
22298;SDS011;11317;51.072;17.036;2023-12-29T01:34:56;9.32;;;4.70;;
22298;SDS011;11317;51.072;17.036;2023-12-29T01:37:22;7.20;;;3.92;;
22298;SDS011;11317;51.072;17.036;2023-12-29T01:39:48;7.22;;;4.60;;
22298;SDS011;11317;51.072;17.036;2023-12-29T01:42:14;11.30;;;4.50;;
22298;SDS011;11317;51.072;17.036;2023-12-29T01:44:40;9.13;;;4.20;;
22298;SDS011;11317;51.072;17.036;2023-12-29T01:47:10;6.20;;;4.22;;
22298;SDS011;11317;51.072;17.036;2023-12-29T01:49:40;7.03;;;4.63;;
22298;SDS011;11317;51.072;17.036;2023-12-29T01:52:07;6.80;;;4.97;;
22298;SDS011;11317;51.072;17.036;2023-12-29T01:54:34;7.35;;;5.15;;
22298;SDS011;11317;51.072;17.036;2023-12-29T01:57:03;9.27;;;4.90;;
22298;SDS011;11317;51.072;17.036;2023-12-29T01:59:29;7.60;;;4.60;;
22298;SDS011;11317;51.072;17.036;2023-12-29T02:01:56;9.82;;;4.18;;
22298;SDS011;11317;51.072;17.036;2023-12-29T02:04:23;7.88;;;3.63;;
22298;SDS011;11317;51.072;17.036;2023-12-29T02:06:50;6.68;;;3.83;;
22298;SDS011;11317;51.072;17.036;2023-12-29T02:09:19;6.53;;;4.13;;
22298;SDS011;11317;51.072;17.036;2023-12-29T02:11:46;8.98;;;5.03;;
22298;SDS011;11317;51.072;17.036;2023-12-29T02:14:13;6.72;;;4.35;;
22298;SDS011;11317;51.072;17.036;2023-12-29T02:19:09;6.35;;;3.63;;
22298;SDS011;11317;51.072;17.036;2023-12-29T02:21:57;9.70;;;3.33;;
22298;SDS011;11317;51.072;17.036;2023-12-29T02:24:24;3.75;;;3.15;;
22298;SDS011;11317;51.072;17.036;2023-12-29T02:26:50;6.72;;;3.60;;
22298;SDS011;11317;51.072;17.036;2023-12-29T02:29:27;4.65;;;2.92;;
22298;SDS011;11317;51.072;17.036;2023-12-29T02:31:56;6.30;;;3.03;;
22298;SDS011;11317;51.072;17.036;2023-12-29T02:34:24;4.55;;;2.85;;
22298;SDS011;11317;51.072;17.036;2023-12-29T02:36:52;8.18;;;2.97;;
22298;SDS011;11317;51.072;17.036;2023-12-29T02:39:19;4.72;;;3.58;;
22298;SDS011;11317;51.072;17.036;2023-12-29T02:41:46;6.75;;;3.42;;
22298;SDS011;11317;51.072;17.036;2023-12-29T02:44:12;6.40;;;3.65;;
22298;SDS011;11317;51.072;17.036;2023-12-29T02:46:38;7.22;;;3.50;;
22298;SDS011;11317;51.072;17.036;2023-12-29T02:49:04;7.28;;;4.10;;
22298;SDS011;11317;51.072;17.036;2023-12-29T02:51:30;6.95;;;4.03;;
22298;SDS011;11317;51.072;17.036;2023-12-29T02:53:57;6.30;;;3.75;;
22298;SDS011;11317;51.072;17.036;2023-12-29T02:56:23;5.35;;;3.65;;
22298;SDS011;11317;51.072;17.036;2023-12-29T02:58:49;4.55;;;3.20;;
22298;SDS011;11317;51.072;17.036;2023-12-29T03:01:16;5.18;;;3.03;;
22298;SDS011;11317;51.072;17.036;2023-12-29T03:03:42;7.10;;;3.78;;
22298;SDS011;11317;51.072;17.036;2023-12-29T03:06:08;4.65;;;2.72;;
22298;SDS011;11317;51.072;17.036;2023-12-29T03:08:34;5.63;;;3.17;;
22298;SDS011;11317;51.072;17.036;2023-12-29T03:11:01;6.53;;;3.05;;
22298;SDS011;11317;51.072;17.036;2023-12-29T03:13:27;7.55;;;3.80;;
22298;SDS011;11317;51.072;17.036;2023-12-29T03:15:53;6.00;;;3.28;;
22298;SDS011;11317;51.072;17.036;2023-12-29T03:18:19;6.03;;;2.88;;
22298;SDS011;11317;51.072;17.036;2023-12-29T03:20:44;5.88;;;3.58;;
22298;SDS011;11317;51.072;17.036;2023-12-29T03:23:10;6.15;;;2.95;;
22298;SDS011;11317;51.072;17.036;2023-12-29T03:25:36;5.65;;;3.10;;
22298;SDS011;11317;51.072;17.036;2023-12-29T03:28:02;6.00;;;3.15;;
22298;SDS011;11317;51.072;17.036;2023-12-29T03:30:28;5.93;;;3.35;;
22298;SDS011;11317;51.072;17.036;2023-12-29T03:32:54;3.38;;;2.83;;
22298;SDS011;11317;51.072;17.036;2023-12-29T03:35:20;5.60;;;3.55;;
22298;SDS011;11317;51.072;17.036;2023-12-29T03:37:46;7.95;;;4.70;;
22298;SDS011;11317;51.072;17.036;2023-12-29T03:40:12;5.93;;;3.80;;
22298;SDS011;11317;51.072;17.036;2023-12-29T03:42:39;5.60;;;3.50;;
22298;SDS011;11317;51.072;17.036;2023-12-29T03:45:05;5.10;;;3.08;;
22298;SDS011;11317;51.072;17.036;2023-12-29T03:47:31;5.47;;;3.42;;
22298;SDS011;11317;51.072;17.036;2023-12-29T03:49:57;5.88;;;3.33;;
22298;SDS011;11317;51.072;17.036;2023-12-29T03:52:23;4.97;;;2.80;;
22298;SDS011;11317;51.072;17.036;2023-12-29T03:54:49;4.05;;;2.97;;
22298;SDS011;11317;51.072;17.036;2023-12-29T03:57:15;4.65;;;2.85;;
22298;SDS011;11317;51.072;17.036;2023-12-29T03:59:41;4.93;;;3.20;;
22298;SDS011;11317;51.072;17.036;2023-12-29T04:02:07;5.80;;;3.42;;
22298;SDS011;11317;51.072;17.036;2023-12-29T04:04:36;4.13;;;3.08;;
22298;SDS011;11317;51.072;17.036;2023-12-29T04:07:03;3.13;;;2.38;;
22298;SDS011;11317;51.072;17.036;2023-12-29T04:09:30;5.20;;;2.85;;
22298;SDS011;11317;51.072;17.036;2023-12-29T04:11:56;5.43;;;2.95;;
22298;SDS011;11317;51.072;17.036;2023-12-29T04:14:22;4.57;;;2.85;;
22298;SDS011;11317;51.072;17.036;2023-12-29T04:16:48;5.50;;;3.00;;
22298;SDS011;11317;51.072;17.036;2023-12-29T04:19:14;5.40;;;2.85;;
22298;SDS011;11317;51.072;17.036;2023-12-29T04:21:40;4.50;;;2.75;;
22298;SDS011;11317;51.072;17.036;2023-12-29T04:24:06;4.50;;;3.20;;
22298;SDS011;11317;51.072;17.036;2023-12-29T04:26:36;4.20;;;2.53;;
22298;SDS011;11317;51.072;17.036;2023-12-29T04:29:02;5.47;;;2.50;;
22298;SDS011;11317;51.072;17.036;2023-12-29T04:31:28;4.85;;;2.38;;
22298;SDS011;11317;51.072;17.036;2023-12-29T04:33:54;4.13;;;2.50;;
22298;SDS011;11317;51.072;17.036;2023-12-29T04:36:20;3.75;;;2.42;;
22298;SDS011;11317;51.072;17.036;2023-12-29T04:38:46;4.13;;;2.50;;
22298;SDS011;11317;51.072;17.036;2023-12-29T04:41:13;3.97;;;2.53;;
22298;SDS011;11317;51.072;17.036;2023-12-29T04:43:39;4.80;;;2.70;;
22298;SDS011;11317;51.072;17.036;2023-12-29T04:46:05;3.13;;;2.35;;
22298;SDS011;11317;51.072;17.036;2023-12-29T04:48:31;4.07;;;2.70;;
22298;SDS011;11317;51.072;17.036;2023-12-29T04:50:57;4.55;;;3.10;;
22298;SDS011;11317;51.072;17.036;2023-12-29T04:53:23;19.70;;;7.20;;
22298;SDS011;11317;51.072;17.036;2023-12-29T04:55:49;11.75;;;5.88;;
22298;SDS011;11317;51.072;17.036;2023-12-29T04:58:15;5.55;;;3.78;;
22298;SDS011;11317;51.072;17.036;2023-12-29T05:00:42;4.97;;;2.80;;
22298;SDS011;11317;51.072;17.036;2023-12-29T05:03:08;4.60;;;2.63;;
22298;SDS011;11317;51.072;17.036;2023-12-29T05:05:33;5.05;;;3.20;;
22298;SDS011;11317;51.072;17.036;2023-12-29T05:08:00;3.92;;;2.72;;
22298;SDS011;11317;51.072;17.036;2023-12-29T05:10:26;5.00;;;2.85;;
22298;SDS011;11317;51.072;17.036;2023-12-29T05:12:52;3.50;;;2.45;;
22298;SDS011;11317;51.072;17.036;2023-12-29T05:15:18;6.97;;;3.75;;
22298;SDS011;11317;51.072;17.036;2023-12-29T05:17:44;5.28;;;3.03;;
22298;SDS011;11317;51.072;17.036;2023-12-29T05:20:10;4.00;;;3.05;;
22298;SDS011;11317;51.072;17.036;2023-12-29T05:22:36;8.18;;;3.40;;
22298;SDS011;11317;51.072;17.036;2023-12-29T05:25:03;6.88;;;3.15;;
22298;SDS011;11317;51.072;17.036;2023-12-29T05:27:30;2.85;;;2.40;;
22298;SDS011;11317;51.072;17.036;2023-12-29T05:29:56;7.60;;;3.65;;
22298;SDS011;11317;51.072;17.036;2023-12-29T05:32:23;13.30;;;5.68;;
22298;SDS011;11317;51.072;17.036;2023-12-29T05:34:49;13.05;;;5.93;;
22298;SDS011;11317;51.072;17.036;2023-12-29T05:37:15;9.13;;;5.18;;
22298;SDS011;11317;51.072;17.036;2023-12-29T05:39:41;7.30;;;3.97;;
22298;SDS011;11317;51.072;17.036;2023-12-29T05:42:08;5.85;;;3.90;;
22298;SDS011;11317;51.072;17.036;2023-12-29T05:44:37;7.30;;;3.80;;
22298;SDS011;11317;51.072;17.036;2023-12-29T05:47:04;5.57;;;2.88;;
22298;SDS011;11317;51.072;17.036;2023-12-29T05:49:30;5.65;;;2.92;;
22298;SDS011;11317;51.072;17.036;2023-12-29T05:51:57;3.55;;;2.70;;
22298;SDS011;11317;51.072;17.036;2023-12-29T05:54:23;5.93;;;3.75;;
22298;SDS011;11317;51.072;17.036;2023-12-29T05:56:50;5.35;;;3.22;;
22298;SDS011;11317;51.072;17.036;2023-12-29T05:59:16;5.68;;;3.20;;
22298;SDS011;11317;51.072;17.036;2023-12-29T06:01:42;4.65;;;3.30;;
22298;SDS011;11317;51.072;17.036;2023-12-29T06:04:08;5.25;;;4.00;;
22298;SDS011;11317;51.072;17.036;2023-12-29T06:06:34;8.60;;;4.10;;
22298;SDS011;11317;51.072;17.036;2023-12-29T06:09:00;9.35;;;5.25;;
22298;SDS011;11317;51.072;17.036;2023-12-29T06:11:26;8.77;;;6.15;;
22298;SDS011;11317;51.072;17.036;2023-12-29T06:13:52;7.93;;;4.70;;
22298;SDS011;11317;51.072;17.036;2023-12-29T06:16:21;10.00;;;4.00;;
22298;SDS011;11317;51.072;17.036;2023-12-29T06:18:50;5.60;;;3.38;;
22298;SDS011;11317;51.072;17.036;2023-12-29T06:21:16;8.35;;;3.63;;
22298;SDS011;11317;51.072;17.036;2023-12-29T06:23:42;7.15;;;3.58;;
22298;SDS011;11317;51.072;17.036;2023-12-29T06:26:18;4.97;;;3.03;;
22298;SDS011;11317;51.072;17.036;2023-12-29T06:28:45;8.57;;;5.63;;
22298;SDS011;11317;51.072;17.036;2023-12-29T06:31:12;10.55;;;5.20;;
22298;SDS011;11317;51.072;17.036;2023-12-29T06:33:42;6.45;;;3.15;;
22298;SDS011;11317;51.072;17.036;2023-12-29T06:36:08;4.53;;;3.03;;
22298;SDS011;11317;51.072;17.036;2023-12-29T06:38:35;5.80;;;3.00;;
22298;SDS011;11317;51.072;17.036;2023-12-29T06:41:04;6.25;;;3.70;;
22298;SDS011;11317;51.072;17.036;2023-12-29T06:43:30;7.32;;;4.00;;
22298;SDS011;11317;51.072;17.036;2023-12-29T06:45:56;9.52;;;5.18;;
22298;SDS011;11317;51.072;17.036;2023-12-29T06:48:22;5.40;;;3.80;;
22298;SDS011;11317;51.072;17.036;2023-12-29T06:50:48;6.43;;;3.55;;
22298;SDS011;11317;51.072;17.036;2023-12-29T06:53:14;3.25;;;2.85;;
22298;SDS011;11317;51.072;17.036;2023-12-29T06:55:40;12.57;;;5.15;;
22298;SDS011;11317;51.072;17.036;2023-12-29T06:58:07;8.00;;;4.10;;
22298;SDS011;11317;51.072;17.036;2023-12-29T07:00:33;7.40;;;3.20;;
22298;SDS011;11317;51.072;17.036;2023-12-29T07:03:00;4.70;;;3.58;;
22298;SDS011;11317;51.072;17.036;2023-12-29T07:05:26;7.22;;;3.67;;
22298;SDS011;11317;51.072;17.036;2023-12-29T07:07:52;4.63;;;2.95;;
22298;SDS011;11317;51.072;17.036;2023-12-29T07:10:18;3.72;;;2.83;;
22298;SDS011;11317;51.072;17.036;2023-12-29T07:12:45;3.78;;;2.88;;
22298;SDS011;11317;51.072;17.036;2023-12-29T07:15:11;8.25;;;3.47;;
22298;SDS011;11317;51.072;17.036;2023-12-29T07:17:39;11.93;;;5.70;;
22298;SDS011;11317;51.072;17.036;2023-12-29T07:20:05;14.18;;;6.93;;
22298;SDS011;11317;51.072;17.036;2023-12-29T07:22:32;11.40;;;5.95;;
22298;SDS011;11317;51.072;17.036;2023-12-29T07:24:58;9.95;;;5.22;;
22298;SDS011;11317;51.072;17.036;2023-12-29T07:27:24;13.68;;;6.50;;
22298;SDS011;11317;51.072;17.036;2023-12-29T07:29:50;11.18;;;5.72;;
22298;SDS011;11317;51.072;17.036;2023-12-29T07:32:16;12.45;;;5.40;;
22298;SDS011;11317;51.072;17.036;2023-12-29T07:34:42;9.82;;;5.25;;
22298;SDS011;11317;51.072;17.036;2023-12-29T07:37:09;6.55;;;3.17;;
22298;SDS011;11317;51.072;17.036;2023-12-29T07:39:36;6.53;;;3.05;;
22298;SDS011;11317;51.072;17.036;2023-12-29T07:42:02;3.70;;;2.38;;
22298;SDS011;11317;51.072;17.036;2023-12-29T07:44:28;7.82;;;3.00;;
22298;SDS011;11317;51.072;17.036;2023-12-29T07:46:56;6.75;;;3.85;;
22298;SDS011;11317;51.072;17.036;2023-12-29T07:49:22;7.50;;;3.00;;
22298;SDS011;11317;51.072;17.036;2023-12-29T07:51:49;4.97;;;2.80;;
22298;SDS011;11317;51.072;17.036;2023-12-29T07:54:14;5.30;;;3.20;;
22298;SDS011;11317;51.072;17.036;2023-12-29T07:56:41;6.15;;;3.45;;
22298;SDS011;11317;51.072;17.036;2023-12-29T07:59:07;6.18;;;2.70;;
22298;SDS011;11317;51.072;17.036;2023-12-29T08:01:33;7.32;;;3.00;;
22298;SDS011;11317;51.072;17.036;2023-12-29T08:03:59;6.60;;;3.15;;
22298;SDS011;11317;51.072;17.036;2023-12-29T08:06:25;6.40;;;2.75;;
22298;SDS011;11317;51.072;17.036;2023-12-29T08:08:51;5.28;;;2.80;;
22298;SDS011;11317;51.072;17.036;2023-12-29T08:11:17;6.43;;;3.13;;
22298;SDS011;11317;51.072;17.036;2023-12-29T08:13:44;4.53;;;3.00;;
22298;SDS011;11317;51.072;17.036;2023-12-29T08:16:11;9.30;;;4.05;;
22298;SDS011;11317;51.072;17.036;2023-12-29T08:18:37;6.15;;;3.38;;
22298;SDS011;11317;51.072;17.036;2023-12-29T08:21:03;6.95;;;2.67;;
22298;SDS011;11317;51.072;17.036;2023-12-29T08:23:30;3.60;;;2.03;;
22298;SDS011;11317;51.072;17.036;2023-12-29T08:25:59;2.50;;;1.50;;
22298;SDS011;11317;51.072;17.036;2023-12-29T08:28:27;2.65;;;1.73;;
22298;SDS011;11317;51.072;17.036;2023-12-29T08:30:53;2.53;;;1.42;;
22298;SDS011;11317;51.072;17.036;2023-12-29T08:33:19;1.90;;;1.48;;
22298;SDS011;11317;51.072;17.036;2023-12-29T08:35:45;3.17;;;1.58;;
22298;SDS011;11317;51.072;17.036;2023-12-29T08:38:11;3.60;;;2.00;;
22298;SDS011;11317;51.072;17.036;2023-12-29T08:40:37;5.00;;;2.67;;
22298;SDS011;11317;51.072;17.036;2023-12-29T08:43:03;2.72;;;1.83;;
22298;SDS011;11317;51.072;17.036;2023-12-29T08:45:29;3.38;;;2.17;;
22298;SDS011;11317;51.072;17.036;2023-12-29T08:47:55;5.25;;;3.10;;
22298;SDS011;11317;51.072;17.036;2023-12-29T08:50:21;6.13;;;3.05;;
22298;SDS011;11317;51.072;17.036;2023-12-29T08:52:47;4.53;;;2.90;;
22298;SDS011;11317;51.072;17.036;2023-12-29T08:55:13;6.03;;;2.55;;
22298;SDS011;11317;51.072;17.036;2023-12-29T08:57:39;4.45;;;2.47;;
22298;SDS011;11317;51.072;17.036;2023-12-29T09:00:05;6.38;;;2.70;;
22298;SDS011;11317;51.072;17.036;2023-12-29T09:02:31;4.05;;;2.75;;
22298;SDS011;11317;51.072;17.036;2023-12-29T09:04:57;4.38;;;2.33;;
22298;SDS011;11317;51.072;17.036;2023-12-29T09:07:23;3.83;;;2.03;;
22298;SDS011;11317;51.072;17.036;2023-12-29T09:09:50;3.65;;;2.42;;
22298;SDS011;11317;51.072;17.036;2023-12-29T09:12:16;5.68;;;1.95;;
22298;SDS011;11317;51.072;17.036;2023-12-29T09:14:42;5.07;;;1.92;;
22298;SDS011;11317;51.072;17.036;2023-12-29T09:17:08;3.08;;;1.80;;
22298;SDS011;11317;51.072;17.036;2023-12-29T09:19:34;4.28;;;1.85;;
22298;SDS011;11317;51.072;17.036;2023-12-29T09:22:00;1.63;;;1.13;;
22298;SDS011;11317;51.072;17.036;2023-12-29T09:24:26;2.63;;;1.20;;
22298;SDS011;11317;51.072;17.036;2023-12-29T09:26:52;1.50;;;1.20;;
22298;SDS011;11317;51.072;17.036;2023-12-29T09:29:19;2.00;;;1.10;;
22298;SDS011;11317;51.072;17.036;2023-12-29T09:31:45;2.40;;;1.33;;
22298;SDS011;11317;51.072;17.036;2023-12-29T09:34:11;1.88;;;1.10;;
22298;SDS011;11317;51.072;17.036;2023-12-29T09:36:37;2.00;;;1.15;;
22298;SDS011;11317;51.072;17.036;2023-12-29T09:39:03;2.67;;;1.48;;
22298;SDS011;11317;51.072;17.036;2023-12-29T09:41:29;2.58;;;1.17;;
22298;SDS011;11317;51.072;17.036;2023-12-29T09:43:58;3.50;;;1.55;;
22298;SDS011;11317;51.072;17.036;2023-12-29T09:46:26;2.42;;;1.20;;
22298;SDS011;11317;51.072;17.036;2023-12-29T09:48:55;2.53;;;1.25;;
22298;SDS011;11317;51.072;17.036;2023-12-29T09:51:25;1.38;;;1.20;;
22298;SDS011;11317;51.072;17.036;2023-12-29T09:53:52;1.90;;;0.93;;
22298;SDS011;11317;51.072;17.036;2023-12-29T09:56:18;2.25;;;1.25;;
22298;SDS011;11317;51.072;17.036;2023-12-29T09:58:46;1.70;;;0.90;;
22298;SDS011;11317;51.072;17.036;2023-12-29T10:01:13;2.25;;;1.15;;
22298;SDS011;11317;51.072;17.036;2023-12-29T10:03:42;1.42;;;1.17;;
22298;SDS011;11317;51.072;17.036;2023-12-29T10:06:08;1.40;;;1.08;;
22298;SDS011;11317;51.072;17.036;2023-12-29T10:08:38;1.38;;;0.93;;
22298;SDS011;11317;51.072;17.036;2023-12-29T10:11:10;4.63;;;1.40;;
22298;SDS011;11317;51.072;17.036;2023-12-29T10:13:36;1.38;;;1.27;;
22298;SDS011;11317;51.072;17.036;2023-12-29T10:16:08;2.80;;;0.93;;
22298;SDS011;11317;51.072;17.036;2023-12-29T10:19:33;2.38;;;1.17;;
22298;SDS011;11317;51.072;17.036;2023-12-29T10:22:11;0.98;;;0.98;;
22298;SDS011;11317;51.072;17.036;2023-12-29T10:24:38;1.73;;;1.08;;
22298;SDS011;11317;51.072;17.036;2023-12-29T10:27:07;1.95;;;1.05;;
22298;SDS011;11317;51.072;17.036;2023-12-29T10:29:33;2.38;;;1.30;;
22298;SDS011;11317;51.072;17.036;2023-12-29T10:31:59;2.80;;;1.52;;
22298;SDS011;11317;51.072;17.036;2023-12-29T10:34:25;2.33;;;1.40;;
22298;SDS011;11317;51.072;17.036;2023-12-29T10:36:55;2.60;;;1.58;;
22298;SDS011;11317;51.072;17.036;2023-12-29T10:39:22;2.08;;;1.10;;
22298;SDS011;11317;51.072;17.036;2023-12-29T10:41:48;1.80;;;1.30;;
22298;SDS011;11317;51.072;17.036;2023-12-29T10:44:15;1.63;;;1.23;;
22298;SDS011;11317;51.072;17.036;2023-12-29T10:46:41;2.72;;;1.30;;
22298;SDS011;11317;51.072;17.036;2023-12-29T10:49:11;1.85;;;1.23;;
22298;SDS011;11317;51.072;17.036;2023-12-29T10:51:38;1.98;;;1.60;;
22298;SDS011;11317;51.072;17.036;2023-12-29T10:54:05;2.25;;;1.35;;
22298;SDS011;11317;51.072;17.036;2023-12-29T10:56:31;2.25;;;1.35;;
22298;SDS011;11317;51.072;17.036;2023-12-29T10:59:02;2.55;;;1.23;;
22298;SDS011;11317;51.072;17.036;2023-12-29T11:01:32;1.52;;;1.40;;
22298;SDS011;11317;51.072;17.036;2023-12-29T11:04:00;2.67;;;1.42;;
22298;SDS011;11317;51.072;17.036;2023-12-29T11:06:26;1.83;;;1.45;;
22298;SDS011;11317;51.072;17.036;2023-12-29T11:08:54;3.55;;;1.30;;
22298;SDS011;11317;51.072;17.036;2023-12-29T11:11:20;4.00;;;1.30;;
22298;SDS011;11317;51.072;17.036;2023-12-29T11:13:47;2.08;;;1.50;;
22298;SDS011;11317;51.072;17.036;2023-12-29T11:16:14;3.40;;;1.70;;
22298;SDS011;11317;51.072;17.036;2023-12-29T11:18:43;1.75;;;1.60;;
22298;SDS011;11317;51.072;17.036;2023-12-29T11:21:10;1.73;;;1.45;;
22298;SDS011;11317;51.072;17.036;2023-12-29T11:23:37;3.70;;;1.60;;
22298;SDS011;11317;51.072;17.036;2023-12-29T11:26:04;2.15;;;1.50;;
22298;SDS011;11317;51.072;17.036;2023-12-29T11:28:30;3.40;;;1.40;;
22298;SDS011;11317;51.072;17.036;2023-12-29T11:30:56;1.60;;;1.38;;
22298;SDS011;11317;51.072;17.036;2023-12-29T11:33:23;2.65;;;1.50;;
22298;SDS011;11317;51.072;17.036;2023-12-29T11:35:56;2.25;;;1.20;;
22298;SDS011;11317;51.072;17.036;2023-12-29T11:43:58;2.05;;;1.58;;
22298;SDS011;11317;51.072;17.036;2023-12-29T11:46:37;1.38;;;1.10;;
22298;SDS011;11317;51.072;17.036;2023-12-29T11:49:05;4.65;;;2.03;;
22298;SDS011;11317;51.072;17.036;2023-12-29T11:53:58;2.60;;;1.75;;
22298;SDS011;11317;51.072;17.036;2023-12-29T11:56:29;3.38;;;1.67;;
22298;SDS011;11317;51.072;17.036;2023-12-29T11:59:21;2.97;;;1.40;;
22298;SDS011;11317;51.072;17.036;2023-12-29T12:01:47;4.70;;;2.13;;
22298;SDS011;11317;51.072;17.036;2023-12-29T12:06:58;5.03;;;2.15;;
22298;SDS011;11317;51.072;17.036;2023-12-29T12:09:24;1.80;;;1.67;;
22298;SDS011;11317;51.072;17.036;2023-12-29T12:11:50;3.45;;;1.70;;
22298;SDS011;11317;51.072;17.036;2023-12-29T12:15:02;2.05;;;1.60;;
22298;SDS011;11317;51.072;17.036;2023-12-29T12:17:27;3.63;;;2.03;;
22298;SDS011;11317;51.072;17.036;2023-12-29T12:19:57;2.90;;;1.58;;
22298;SDS011;11317;51.072;17.036;2023-12-29T12:22:25;3.60;;;1.73;;
22298;SDS011;11317;51.072;17.036;2023-12-29T12:24:56;4.78;;;1.58;;
22298;SDS011;11317;51.072;17.036;2023-12-29T12:27:25;3.53;;;1.52;;
22298;SDS011;11317;51.072;17.036;2023-12-29T12:29:55;2.13;;;1.50;;
22298;SDS011;11317;51.072;17.036;2023-12-29T12:32:24;2.95;;;1.85;;
22298;SDS011;11317;51.072;17.036;2023-12-29T12:34:51;2.35;;;1.90;;
22298;SDS011;11317;51.072;17.036;2023-12-29T12:37:18;2.08;;;1.63;;
22298;SDS011;11317;51.072;17.036;2023-12-29T12:39:48;1.77;;;1.45;;
22298;SDS011;11317;51.072;17.036;2023-12-29T12:42:15;2.28;;;1.70;;
22298;SDS011;11317;51.072;17.036;2023-12-29T12:44:56;3.10;;;2.22;;
22298;SDS011;11317;51.072;17.036;2023-12-29T12:47:35;2.70;;;1.67;;
22298;SDS011;11317;51.072;17.036;2023-12-29T12:50:04;3.90;;;2.15;;
22298;SDS011;11317;51.072;17.036;2023-12-29T12:52:31;3.53;;;2.20;;
22298;SDS011;11317;51.072;17.036;2023-12-29T12:54:58;3.67;;;2.15;;
22298;SDS011;11317;51.072;17.036;2023-12-29T12:57:24;3.25;;;1.80;;
22298;SDS011;11317;51.072;17.036;2023-12-29T12:59:50;1.73;;;1.15;;
22298;SDS011;11317;51.072;17.036;2023-12-29T13:02:18;7.88;;;3.00;;
22298;SDS011;11317;51.072;17.036;2023-12-29T13:04:45;3.33;;;1.85;;
22298;SDS011;11317;51.072;17.036;2023-12-29T13:07:14;4.88;;;1.98;;
22298;SDS011;11317;51.072;17.036;2023-12-29T13:09:41;5.65;;;2.20;;
22298;SDS011;11317;51.072;17.036;2023-12-29T13:12:11;3.58;;;1.83;;
22298;SDS011;11317;51.072;17.036;2023-12-29T13:14:38;4.85;;;1.50;;
22298;SDS011;11317;51.072;17.036;2023-12-29T13:17:08;3.72;;;1.83;;
22298;SDS011;11317;51.072;17.036;2023-12-29T13:19:38;2.65;;;1.58;;
22298;SDS011;11317;51.072;17.036;2023-12-29T13:22:06;2.53;;;1.63;;
22298;SDS011;11317;51.072;17.036;2023-12-29T13:24:33;3.38;;;2.00;;
22298;SDS011;11317;51.072;17.036;2023-12-29T13:27:05;3.17;;;1.70;;
22298;SDS011;11317;51.072;17.036;2023-12-29T13:29:32;2.80;;;1.50;;
22298;SDS011;11317;51.072;17.036;2023-12-29T13:32:01;3.92;;;1.95;;
22298;SDS011;11317;51.072;17.036;2023-12-29T13:34:48;3.05;;;1.55;;
22298;SDS011;11317;51.072;17.036;2023-12-29T13:40:03;4.85;;;2.17;;
22298;SDS011;11317;51.072;17.036;2023-12-29T13:42:42;5.95;;;1.92;;
22298;SDS011;11317;51.072;17.036;2023-12-29T13:45:12;3.83;;;1.73;;
22298;SDS011;11317;51.072;17.036;2023-12-29T13:47:39;3.28;;;1.92;;
22298;SDS011;11317;51.072;17.036;2023-12-29T13:50:08;3.13;;;1.63;;
22298;SDS011;11317;51.072;17.036;2023-12-29T13:52:35;5.45;;;2.35;;
22298;SDS011;11317;51.072;17.036;2023-12-29T13:55:05;2.63;;;1.65;;
22298;SDS011;11317;51.072;17.036;2023-12-29T13:57:31;5.43;;;1.70;;
22298;SDS011;11317;51.072;17.036;2023-12-29T14:00:18;4.28;;;2.30;;
22298;SDS011;11317;51.072;17.036;2023-12-29T14:07:58;6.03;;;2.10;;
22298;SDS011;11317;51.072;17.036;2023-12-29T14:10:31;6.10;;;2.30;;
22298;SDS011;11317;51.072;17.036;2023-12-29T14:13:07;5.25;;;2.25;;
22298;SDS011;11317;51.072;17.036;2023-12-29T14:15:38;3.50;;;2.40;;
22298;SDS011;11317;51.072;17.036;2023-12-29T14:18:50;5.57;;;2.33;;
22298;SDS011;11317;51.072;17.036;2023-12-29T14:24:14;4.72;;;2.65;;
22298;SDS011;11317;51.072;17.036;2023-12-29T14:26:42;7.45;;;3.15;;
22298;SDS011;11317;51.072;17.036;2023-12-29T14:29:17;11.68;;;3.30;;
22298;SDS011;11317;51.072;17.036;2023-12-29T14:31:44;6.50;;;2.60;;
22298;SDS011;11317;51.072;17.036;2023-12-29T14:34:11;7.72;;;3.35;;
22298;SDS011;11317;51.072;17.036;2023-12-29T14:36:39;7.40;;;3.28;;
22298;SDS011;11317;51.072;17.036;2023-12-29T14:39:06;6.05;;;3.10;;
22298;SDS011;11317;51.072;17.036;2023-12-29T14:41:35;6.22;;;3.05;;
22298;SDS011;11317;51.072;17.036;2023-12-29T14:44:01;7.75;;;3.38;;
22298;SDS011;11317;51.072;17.036;2023-12-29T14:46:27;9.20;;;3.13;;
22298;SDS011;11317;51.072;17.036;2023-12-29T14:48:53;6.05;;;3.40;;
22298;SDS011;11317;51.072;17.036;2023-12-29T14:51:21;5.95;;;2.72;;
22298;SDS011;11317;51.072;17.036;2023-12-29T14:53:48;5.18;;;2.63;;
22298;SDS011;11317;51.072;17.036;2023-12-29T14:56:14;7.57;;;2.95;;
22298;SDS011;11317;51.072;17.036;2023-12-29T14:58:42;4.63;;;2.95;;
22298;SDS011;11317;51.072;17.036;2023-12-29T15:01:08;4.63;;;2.33;;